createdAt,value
2022-11-30T00:01:20.664Z,59.90
2022-11-30T00:03:47.908Z,59.98
2022-11-30T00:06:17.242Z,60.10
2022-11-30T00:08:44.271Z,60.06
2022-11-30T00:11:18.213Z,60.12
2022-11-30T00:13:45.728Z,60.21
2022-11-30T00:16:12.547Z,60.27
2022-11-30T00:18:39.652Z,60.11
2022-11-30T00:21:10.885Z,60.36
2022-11-30T00:23:38.874Z,60.45
2022-11-30T00:26:08.277Z,60.30
2022-11-30T00:28:36.211Z,60.49
2022-11-30T00:31:05.825Z,60.53
2022-11-30T00:33:34.491Z,60.38
2022-11-30T00:36:22.949Z,60.45
2022-11-30T00:38:51.603Z,60.46
2022-11-30T00:41:19.921Z,60.67
2022-11-30T00:43:46.890Z,60.65
2022-11-30T00:46:14.698Z,60.58
2022-11-30T00:48:42.265Z,60.52
2022-11-30T00:51:10.697Z,60.67
2022-11-30T00:53:41.317Z,60.78
2022-11-30T00:56:09.192Z,60.59
2022-11-30T00:58:36.457Z,60.98
2022-11-30T01:01:03.509Z,60.90
2022-11-30T01:03:30.677Z,60.66
2022-11-30T01:06:05.658Z,60.88
2022-11-30T01:08:32.889Z,60.93
2022-11-30T01:11:07.393Z,60.98
2022-11-30T01:13:34.413Z,60.88
2022-11-30T01:16:01.316Z,61.19
2022-11-30T01:18:28.216Z,61.06
2022-11-30T01:20:55.111Z,61.12
2022-11-30T01:23:22.029Z,60.95
2022-11-30T01:25:55.859Z,61.02
2022-11-30T01:28:22.883Z,61.09
2022-11-30T01:30:57.939Z,60.90
2022-11-30T01:33:25.075Z,61.12
2022-11-30T01:36:10.127Z,61.08
2022-11-30T01:38:39.954Z,61.42
2022-11-30T01:41:08.144Z,61.33
2022-11-30T01:43:40.964Z,61.41
2022-11-30T01:46:40.244Z,61.24
2022-11-30T01:49:31.342Z,61.36
2022-11-30T01:52:03.799Z,61.46
2022-11-30T01:54:37.039Z,61.47
2022-11-30T01:57:20.293Z,61.46
2022-11-30T01:59:50.626Z,61.44
2022-11-30T02:02:25.322Z,61.47
2022-11-30T02:04:52.208Z,61.46
2022-11-30T02:07:19.160Z,61.57
2022-11-30T02:09:46.129Z,61.40
2022-11-30T02:12:26.816Z,61.67
2022-11-30T02:14:59.075Z,61.41
2022-11-30T02:17:34.544Z,61.40
2022-11-30T02:20:19.696Z,61.44
2022-11-30T02:23:05.032Z,61.67
2022-11-30T02:25:55.245Z,61.62
2022-11-30T02:28:40.824Z,61.56
2022-11-30T02:31:12.046Z,61.84
2022-11-30T02:33:41.370Z,61.69
2022-11-30T02:36:10.180Z,61.72
2022-11-30T02:38:38.463Z,61.53
2022-11-30T02:41:05.428Z,61.59
2022-11-30T02:43:33.987Z,61.94
2022-11-30T02:46:30.608Z,61.78
2022-11-30T02:49:06.774Z,61.76
2022-11-30T02:51:35.992Z,61.91
2022-11-30T02:54:03.384Z,61.69
2022-11-30T02:56:30.918Z,61.80
2022-11-30T02:58:57.788Z,61.89
2022-11-30T03:01:25.948Z,61.88
2022-11-30T03:03:52.892Z,61.83
2022-11-30T03:06:19.713Z,61.96
2022-11-30T03:08:46.540Z,61.78
2022-11-30T03:11:13.371Z,61.74
2022-11-30T03:13:40.207Z,61.83
2022-11-30T03:16:12.280Z,61.78
2022-11-30T03:18:39.797Z,61.98
2022-11-30T03:21:08.191Z,61.79
2022-11-30T03:23:35.860Z,62.10
2022-11-30T03:26:04.195Z,61.83
2022-11-30T03:28:31.083Z,62.09
2022-11-30T03:30:58.005Z,61.97
2022-11-30T03:33:25.342Z,62.01
2022-11-30T03:36:18.494Z,61.85
2022-11-30T03:38:45.376Z,62.13
2022-11-30T03:41:14.600Z,61.92
2022-11-30T03:43:41.467Z,61.97
2022-11-30T03:46:08.395Z,62.05
2022-11-30T03:48:38.554Z,61.87
2022-11-30T03:51:06.039Z,62.07
2022-11-30T03:53:32.857Z,62.07
2022-11-30T03:56:02.363Z,62.11
2022-11-30T03:58:29.747Z,62.13
2022-11-30T04:01:09.871Z,62.10
2022-11-30T04:03:38.110Z,62.17
2022-11-30T04:06:06.461Z,62.18
2022-11-30T04:08:33.729Z,61.68
2022-11-30T04:11:02.376Z,62.09
2022-11-30T04:13:30.408Z,62.02
2022-11-30T04:15:57.388Z,61.88
2022-11-30T04:18:26.930Z,62.22
2022-11-30T04:20:55.554Z,62.14
2022-11-30T04:23:24.196Z,62.17
2022-11-30T04:25:52.153Z,62.22
2022-11-30T04:28:19.524Z,62.14
2022-11-30T04:30:46.897Z,62.40
2022-11-30T04:33:15.610Z,62.47
2022-11-30T04:35:46.143Z,62.23
2022-11-30T04:38:13.235Z,62.29
2022-11-30T04:40:41.308Z,62.13
2022-11-30T04:43:08.826Z,62.28
2022-11-30T04:45:36.222Z,62.37
2022-11-30T04:48:03.924Z,62.29
2022-11-30T04:50:30.747Z,62.30
2022-11-30T04:52:57.732Z,62.58
2022-11-30T04:55:25.420Z,62.45
2022-11-30T04:57:52.532Z,62.40
2022-11-30T05:00:20.399Z,62.41
2022-11-30T05:02:52.450Z,62.54
2022-11-30T05:05:20.534Z,62.38
2022-11-30T05:07:59.198Z,62.58
2022-11-30T05:10:27.413Z,62.55
2022-11-30T05:12:54.518Z,62.38
2022-11-30T05:15:21.951Z,62.45
2022-11-30T05:17:49.013Z,62.47
2022-11-30T05:20:16.204Z,62.77
2022-11-30T05:22:43.102Z,62.54
2022-11-30T05:25:10.152Z,62.69
2022-11-30T05:27:37.849Z,62.52
2022-11-30T05:30:06.843Z,62.54
2022-11-30T05:32:33.671Z,62.76
2022-11-30T05:35:00.459Z,62.74
2022-11-30T05:37:27.353Z,62.65
2022-11-30T05:39:54.205Z,62.84
2022-11-30T05:42:21.354Z,62.85
2022-11-30T05:44:48.518Z,62.90
2022-11-30T05:47:15.778Z,62.83
2022-11-30T05:49:42.737Z,62.82
2022-11-30T05:52:09.562Z,62.83
2022-11-30T05:54:36.395Z,62.96
2022-11-30T05:57:03.383Z,63.18
2022-11-30T05:59:30.234Z,63.34
2022-11-30T06:01:57.257Z,63.35
2022-11-30T06:04:24.247Z,63.38
2022-11-30T06:06:52.516Z,62.61
2022-11-30T06:09:19.341Z,62.84
2022-11-30T06:11:46.198Z,63.25
2022-11-30T06:14:13.057Z,63.21
2022-11-30T06:16:40.175Z,62.91
2022-11-30T06:19:07.398Z,62.98
2022-11-30T06:21:34.570Z,63.44
2022-11-30T06:24:01.389Z,63.12
2022-11-30T06:26:28.458Z,63.22
2022-11-30T06:28:55.486Z,63.30
2022-11-30T06:31:22.461Z,63.35
2022-11-30T06:33:49.466Z,63.23
2022-11-30T06:36:21.680Z,63.14
2022-11-30T06:38:48.471Z,63.11
2022-11-30T06:41:15.393Z,63.07
2022-11-30T06:43:42.356Z,63.01
2022-11-30T06:46:09.875Z,63.05
2022-11-30T06:48:36.922Z,62.62
2022-11-30T06:51:08.396Z,62.49
2022-11-30T06:53:35.699Z,62.72
2022-11-30T06:56:10.633Z,62.54
2022-11-30T06:58:39.714Z,62.68
2022-11-30T07:01:08.939Z,62.92
2022-11-30T07:03:36.770Z,62.88
2022-11-30T07:06:08.491Z,63.17
2022-11-30T07:08:35.468Z,62.87
2022-11-30T07:11:02.503Z,62.93
2022-11-30T07:13:30.490Z,63.03
2022-11-30T07:15:57.460Z,62.82
2022-11-30T07:18:30.169Z,62.96
2022-11-30T07:21:03.644Z,62.94
2022-11-30T07:23:54.300Z,62.85
2022-11-30T07:26:22.864Z,63.11
2022-11-30T07:28:55.008Z,63.17
2022-11-30T07:31:26.661Z,62.77
2022-11-30T07:33:54.110Z,62.98
2022-11-30T07:36:23.856Z,62.84
2022-11-30T07:38:50.809Z,62.93
2022-11-30T07:41:18.391Z,62.43
2022-11-30T07:43:45.368Z,62.16
2022-11-30T07:46:14.383Z,61.13
2022-11-30T07:48:42.245Z,61.34
2022-11-30T07:51:13.640Z,60.27
2022-11-30T07:53:41.079Z,60.93
2022-11-30T07:56:10.848Z,61.00
2022-11-30T07:58:38.542Z,61.52
2022-11-30T08:01:11.326Z,61.62
2022-11-30T08:03:38.513Z,61.69
2022-11-30T08:06:13.990Z,61.70
2022-11-30T08:08:43.792Z,62.11
2022-11-30T08:11:14.396Z,62.19
2022-11-30T08:13:41.894Z,61.76
2022-11-30T08:16:15.600Z,62.26
2022-11-30T08:18:43.050Z,62.40
2022-11-30T08:21:12.048Z,62.41
2022-11-30T08:23:41.544Z,62.27
2022-11-30T08:26:19.256Z,62.58
2022-11-30T08:28:47.818Z,62.43
2022-11-30T08:31:24.599Z,62.59
2022-11-30T08:33:58.850Z,62.49
2022-11-30T08:36:27.413Z,62.63
2022-11-30T08:38:54.504Z,62.65
2022-11-30T08:41:23.251Z,62.64
2022-11-30T08:43:51.567Z,62.73
2022-11-30T08:46:49.706Z,62.72
2022-11-30T08:54:45.642Z,62.93
2022-11-30T08:57:14.194Z,62.76
2022-11-30T08:59:41.160Z,62.74
2022-11-30T09:02:11.220Z,62.79
2022-11-30T09:04:38.241Z,63.06
2022-11-30T09:07:05.611Z,62.93
2022-11-30T09:09:33.191Z,62.93
2022-11-30T09:12:00.448Z,63.11
2022-11-30T09:14:27.679Z,62.95
2022-11-30T09:16:55.579Z,62.88
2022-11-30T09:19:22.739Z,63.03
2022-11-30T09:21:52.103Z,63.19
2022-11-30T09:24:19.655Z,62.89
2022-11-30T09:26:46.828Z,63.00
2022-11-30T09:29:13.787Z,62.97
2022-11-30T09:31:40.881Z,63.23
2022-11-30T09:34:08.039Z,63.20
2022-11-30T09:36:36.897Z,63.10
2022-11-30T09:39:03.958Z,63.11
2022-11-30T09:41:45.765Z,63.15
2022-11-30T09:44:46.352Z,63.23
2022-11-30T09:47:38.322Z,63.29
2022-11-30T09:50:15.819Z,63.25
2022-11-30T09:53:32.437Z,63.12
2022-11-30T09:56:00.949Z,63.14
2022-11-30T09:58:43.085Z,63.13
2022-11-30T10:01:19.061Z,63.47
2022-11-30T10:03:47.317Z,63.31
2022-11-30T10:06:32.205Z,63.43
2022-11-30T10:09:25.685Z,63.40
2022-11-30T10:11:59.064Z,63.35
2022-11-30T10:15:00.162Z,63.35
2022-11-30T10:17:30.029Z,63.23
2022-11-30T10:20:12.723Z,63.44
2022-11-30T10:22:56.242Z,63.57
2022-11-30T10:25:24.800Z,63.52
2022-11-30T10:27:53.505Z,63.45
2022-11-30T10:30:22.991Z,63.26
2022-11-30T10:32:55.694Z,63.67
2022-11-30T10:35:37.639Z,63.45
2022-11-30T10:38:28.255Z,63.57
2022-11-30T10:41:05.648Z,63.50
2022-11-30T10:44:11.099Z,63.43
2022-11-30T10:46:44.056Z,63.63
2022-11-30T10:49:19.052Z,63.62
2022-11-30T10:51:52.859Z,63.61
2022-11-30T10:54:23.242Z,63.67
2022-11-30T10:56:50.212Z,63.70
2022-11-30T10:59:22.924Z,63.51
2022-11-30T11:01:50.408Z,63.61
2022-11-30T11:04:25.680Z,63.71
2022-11-30T11:06:59.488Z,63.63
2022-11-30T11:09:50.629Z,63.67
2022-11-30T11:12:21.792Z,63.53
2022-11-30T11:14:48.919Z,63.50
2022-11-30T11:17:18.759Z,63.61
2022-11-30T11:19:48.292Z,63.75
2022-11-30T11:22:17.081Z,63.65
2022-11-30T11:24:44.939Z,63.51
2022-11-30T11:27:29.890Z,63.51
2022-11-30T11:30:09.417Z,63.71
2022-11-30T11:32:36.430Z,63.66
2022-11-30T11:35:03.683Z,63.75
2022-11-30T11:37:34.032Z,63.82
2022-11-30T11:40:08.906Z,63.88
2022-11-30T11:43:00.749Z,63.57
2022-11-30T11:45:35.382Z,63.62
2022-11-30T11:48:28.879Z,63.79
2022-11-30T11:51:08.639Z,63.79
2022-11-30T11:53:44.048Z,63.75
2022-11-30T11:56:22.677Z,63.73
2022-11-30T11:58:58.436Z,63.67
2022-11-30T12:02:06.125Z,63.81
2022-11-30T12:04:56.804Z,63.83
2022-11-30T12:07:32.946Z,63.70
2022-11-30T12:13:18.249Z,63.94
2022-11-30T12:15:51.109Z,63.82
2022-11-30T12:18:25.374Z,63.84
2022-11-30T12:21:07.993Z,63.79
2022-11-30T12:24:04.188Z,63.88
2022-11-30T12:26:33.946Z,64.08
2022-11-30T12:29:18.818Z,64.09
2022-11-30T12:32:01.883Z,64.09
2022-11-30T12:34:43.239Z,63.89
2022-11-30T12:37:47.346Z,63.95
2022-11-30T12:40:20.891Z,64.17
2022-11-30T12:42:53.549Z,63.83
2022-11-30T12:45:37.792Z,63.98
2022-11-30T12:48:35.424Z,63.83
2022-11-30T12:51:26.411Z,64.06
2022-11-30T12:54:23.282Z,63.88
2022-11-30T12:57:01.679Z,63.83
2022-11-30T13:00:09.573Z,64.02
2022-11-30T13:02:48.478Z,63.94
2022-11-30T13:05:30.952Z,64.02
2022-11-30T13:08:26.747Z,63.90
2022-11-30T13:11:00.499Z,63.91
2022-11-30T13:13:32.627Z,64.09
2022-11-30T13:16:02.356Z,64.01
2022-11-30T13:18:30.596Z,63.89
2022-11-30T13:21:07.220Z,63.90
2022-11-30T13:23:48.979Z,63.87
2022-11-30T13:26:31.359Z,64.14
2022-11-30T13:29:06.262Z,64.00
2022-11-30T13:31:48.667Z,63.94
2022-11-30T13:34:33.792Z,64.13
2022-11-30T13:37:11.923Z,64.22
2022-11-30T13:39:58.473Z,64.08
2022-11-30T13:42:35.946Z,64.10
2022-11-30T13:45:15.449Z,64.00
2022-11-30T13:47:53.061Z,64.18
2022-11-30T13:50:26.285Z,64.30
2022-11-30T13:52:59.305Z,64.19
2022-11-30T13:56:17.424Z,64.04
2022-11-30T13:59:29.326Z,64.26
2022-11-30T14:02:33.607Z,64.18
2022-11-30T14:05:18.594Z,64.42
2022-11-30T14:07:46.831Z,64.42
2022-11-30T14:10:29.459Z,64.28
2022-11-30T14:13:05.808Z,64.57
2022-11-30T14:15:38.908Z,64.26
2022-11-30T14:18:21.963Z,64.15
2022-11-30T14:20:52.060Z,64.29
2022-11-30T14:23:28.094Z,64.39
2022-11-30T14:25:58.091Z,64.17
2022-11-30T14:28:33.363Z,64.46
2022-11-30T14:31:01.000Z,64.43
2022-11-30T14:33:40.112Z,64.37
2022-11-30T14:36:08.668Z,64.36
2022-11-30T14:38:41.428Z,64.47
2022-11-30T14:41:21.597Z,64.55
2022-11-30T14:44:03.567Z,64.30
2022-11-30T14:46:33.995Z,64.74
2022-11-30T14:49:15.496Z,64.77
2022-11-30T14:51:45.517Z,64.39
2022-11-30T14:54:17.156Z,64.42
2022-11-30T14:56:49.192Z,64.36
2022-11-30T14:59:38.021Z,64.40
2022-11-30T15:02:12.337Z,64.51
2022-11-30T15:04:39.338Z,64.63
2022-11-30T15:07:13.737Z,64.49
2022-11-30T15:09:43.862Z,64.38
2022-11-30T15:12:11.074Z,64.66
2022-11-30T15:14:38.119Z,64.42
2022-11-30T15:17:14.941Z,64.70
2022-11-30T15:19:48.870Z,64.53
2022-11-30T15:22:23.026Z,64.42
2022-11-30T15:24:50.550Z,64.61
2022-11-30T15:27:24.114Z,64.67
2022-11-30T15:30:00.243Z,64.73
2022-11-30T15:32:27.736Z,64.65
2022-11-30T15:34:57.740Z,64.77
2022-11-30T15:37:33.072Z,64.59
2022-11-30T15:40:02.592Z,64.61
2022-11-30T15:42:40.793Z,64.61
2022-11-30T15:45:23.600Z,64.49
2022-11-30T15:47:52.375Z,64.55
2022-11-30T15:50:31.324Z,64.57
2022-11-30T15:53:04.131Z,64.73
2022-11-30T15:55:45.559Z,64.75
2022-11-30T15:58:30.960Z,64.68
2022-11-30T16:01:01.059Z,64.51
2022-11-30T16:03:28.017Z,64.79
2022-11-30T16:06:00.598Z,64.82
2022-11-30T16:08:28.562Z,64.69
2022-11-30T16:10:55.590Z,64.80
2022-11-30T16:13:23.862Z,64.84
2022-11-30T16:15:52.328Z,64.74
2022-11-30T16:18:25.634Z,64.50
2022-11-30T16:20:56.757Z,64.81
2022-11-30T16:23:23.660Z,64.84
2022-11-30T16:25:51.145Z,64.66
2022-11-30T16:28:20.321Z,64.68
2022-11-30T16:30:48.651Z,64.56
2022-11-30T16:33:16.692Z,64.94
2022-11-30T16:36:01.458Z,64.84
2022-11-30T16:38:29.080Z,64.69
2022-11-30T16:40:56.463Z,64.66
2022-11-30T16:43:26.017Z,64.89
2022-11-30T16:45:53.016Z,64.58
2022-11-30T16:48:20.434Z,64.64
2022-11-30T16:50:47.473Z,64.56
2022-11-30T16:53:15.444Z,64.80
2022-11-30T16:55:43.073Z,64.90
2022-11-30T16:58:10.028Z,63.93
2022-11-30T17:00:39.801Z,64.09
2022-11-30T17:03:24.255Z,64.21
2022-11-30T17:05:51.208Z,64.35
2022-11-30T17:08:18.282Z,64.10
2022-11-30T17:10:45.328Z,64.30
2022-11-30T17:13:15.988Z,64.62
2022-11-30T17:15:42.972Z,64.91
2022-11-30T17:18:10.481Z,64.70
2022-11-30T17:20:38.172Z,64.69
2022-11-30T17:23:06.467Z,64.88
2022-11-30T17:25:33.687Z,64.71
2022-11-30T17:28:01.050Z,64.54
2022-11-30T17:30:28.451Z,64.79
2022-11-30T17:32:55.817Z,64.76
2022-11-30T17:35:22.794Z,64.72
2022-11-30T17:37:50.068Z,64.85
2022-11-30T17:40:17.447Z,64.69
2022-11-30T17:42:44.828Z,64.73
2022-11-30T17:45:12.264Z,64.67
2022-11-30T17:47:39.587Z,64.34
2022-11-30T17:50:08.008Z,64.61
2022-11-30T17:52:35.367Z,64.46
2022-11-30T17:55:02.681Z,64.66
2022-11-30T17:57:29.730Z,64.57
2022-11-30T17:59:56.945Z,64.67
2022-11-30T18:02:24.804Z,64.50
2022-11-30T18:04:53.175Z,64.54
2022-11-30T18:07:21.937Z,64.53
2022-11-30T18:09:52.662Z,64.65
2022-11-30T18:12:35.328Z,64.70
2022-11-30T18:15:02.655Z,64.69
2022-11-30T18:17:32.103Z,64.40
2022-11-30T18:20:03.749Z,64.37
2022-11-30T18:22:38.596Z,64.25
2022-11-30T18:25:06.108Z,64.16
2022-11-30T18:27:33.621Z,64.01
2022-11-30T18:30:02.013Z,63.89
2022-11-30T18:32:33.847Z,63.75
2022-11-30T18:35:01.082Z,63.16
2022-11-30T18:37:28.753Z,63.12
2022-11-30T18:39:56.052Z,63.22
2022-11-30T18:42:23.261Z,62.93
2022-11-30T18:44:50.704Z,62.90
2022-11-30T18:47:17.933Z,62.89
2022-11-30T18:49:44.991Z,62.94
2022-11-30T18:52:11.931Z,62.93
2022-11-30T18:54:39.158Z,62.99
2022-11-30T18:57:06.406Z,62.87
2022-11-30T18:59:33.666Z,62.94
2022-11-30T19:02:01.578Z,62.70
2022-11-30T19:04:28.905Z,62.61
2022-11-30T19:06:55.953Z,62.41
2022-11-30T19:09:24.295Z,62.64
2022-11-30T19:11:52.709Z,62.47
2022-11-30T19:14:20.615Z,62.21
2022-11-30T19:16:48.876Z,61.97
2022-11-30T19:19:16.365Z,62.01
2022-11-30T19:21:48.209Z,61.80
2022-11-30T19:24:16.768Z,62.04
2022-11-30T19:26:44.137Z,61.79
2022-11-30T19:29:12.534Z,61.44
2022-11-30T19:31:40.041Z,61.54
2022-11-30T19:34:12.986Z,61.24
2022-11-30T19:36:41.107Z,61.25
2022-11-30T19:39:10.298Z,61.09
2022-11-30T19:41:37.597Z,60.96
2022-11-30T19:44:05.947Z,61.16
2022-11-30T19:46:34.982Z,61.23
2022-11-30T19:49:02.664Z,61.34
2022-11-30T19:51:31.573Z,61.27
2022-11-30T19:54:01.871Z,61.34
2022-11-30T19:56:31.719Z,61.25
2022-11-30T19:59:04.440Z,61.23
2022-11-30T20:01:34.925Z,60.97
2022-11-30T20:04:02.842Z,61.02
2022-11-30T20:06:37.861Z,61.33
2022-11-30T20:09:07.002Z,61.32
2022-11-30T20:11:34.737Z,60.79
2022-11-30T20:14:02.077Z,60.75
2022-11-30T20:16:29.688Z,60.95
2022-11-30T20:19:01.486Z,60.68
2022-11-30T20:21:32.321Z,60.62
2022-11-30T20:24:02.278Z,60.47
2022-11-30T20:26:39.000Z,60.39
2022-11-30T20:29:08.828Z,60.46
2022-11-30T20:31:37.565Z,60.29
2022-11-30T20:34:05.656Z,60.25
2022-11-30T20:36:32.939Z,60.14
2022-11-30T20:39:00.517Z,60.19
2022-11-30T20:41:35.597Z,59.98
2022-11-30T20:44:02.906Z,60.22
2022-11-30T20:46:36.021Z,59.99
2022-11-30T20:49:05.038Z,59.92
2022-11-30T20:51:35.060Z,59.67
2022-11-30T20:54:05.955Z,59.48
2022-11-30T20:56:35.690Z,59.65
2022-11-30T20:59:05.409Z,59.52
2022-11-30T21:01:34.667Z,59.55
2022-11-30T21:04:01.980Z,59.39
2022-11-30T21:06:33.286Z,59.61
2022-11-30T21:09:00.679Z,59.22
2022-11-30T21:11:29.433Z,59.18
2022-11-30T21:13:57.520Z,59.51
2022-11-30T21:16:28.913Z,59.17
2022-11-30T21:18:58.774Z,58.89
2022-11-30T21:21:32.093Z,59.17
2022-11-30T21:24:01.592Z,58.88
2022-11-30T21:26:34.515Z,59.03
2022-11-30T21:29:07.403Z,59.04
2022-11-30T21:31:35.235Z,58.87
2022-11-30T21:34:02.895Z,58.85
2022-11-30T21:36:30.183Z,58.73
2022-11-30T21:39:05.004Z,58.70
2022-11-30T21:41:35.020Z,58.93
2022-11-30T21:44:02.620Z,58.68
2022-11-30T21:46:30.397Z,58.63
2022-11-30T21:48:57.605Z,58.70
2022-11-30T21:51:27.391Z,58.71
2022-11-30T21:53:59.126Z,58.32
2022-11-30T21:56:29.286Z,58.44
2022-11-30T21:58:57.410Z,58.46
2022-11-30T22:01:35.002Z,58.35
2022-11-30T22:04:04.321Z,58.17
2022-11-30T22:06:34.399Z,58.39
2022-11-30T22:09:03.740Z,58.05
2022-11-30T22:11:31.493Z,58.09
2022-11-30T22:13:58.816Z,57.90
2022-11-30T22:16:32.432Z,58.16
2022-11-30T22:19:01.579Z,57.78
2022-11-30T22:21:30.887Z,57.89
2022-11-30T22:23:57.940Z,57.74
2022-11-30T22:26:27.296Z,57.87
2022-11-30T22:28:59.807Z,58.08
2022-11-30T22:31:38.791Z,58.10
2022-11-30T22:34:06.768Z,57.94
2022-11-30T22:36:36.897Z,58.22
2022-11-30T22:39:06.538Z,58.35
2022-11-30T22:41:34.565Z,58.37
2022-11-30T22:44:01.759Z,58.40
2022-11-30T22:46:31.465Z,58.59
2022-11-30T22:49:03.027Z,58.41
2022-11-30T22:51:32.923Z,58.58
2022-11-30T22:54:00.654Z,58.65
2022-11-30T22:56:33.877Z,58.71
2022-11-30T22:59:01.740Z,58.74
2022-11-30T23:01:32.031Z,58.96
2022-11-30T23:04:19.609Z,58.81
2022-11-30T23:06:48.773Z,59.16
2022-11-30T23:09:19.406Z,58.95
2022-11-30T23:11:46.684Z,59.32
2022-11-30T23:14:13.890Z,59.05
2022-11-30T23:16:41.098Z,59.18
2022-11-30T23:19:08.923Z,59.51
2022-11-30T23:21:41.385Z,59.22
2022-11-30T23:24:12.799Z,59.46
2022-11-30T23:26:39.872Z,59.44
2022-11-30T23:29:10.032Z,59.39
2022-11-30T23:31:39.898Z,59.58
2022-11-30T23:34:09.300Z,59.49
2022-11-30T23:36:36.567Z,59.50
2022-11-30T23:39:07.732Z,59.73
2022-11-30T23:41:34.556Z,59.75
2022-11-30T23:44:02.033Z,59.85
2022-11-30T23:46:28.979Z,59.73
2022-11-30T23:48:56.119Z,59.75
2022-11-30T23:51:24.170Z,59.81
2022-11-30T23:53:51.180Z,60.25
2022-11-30T23:56:20.174Z,60.22
2022-11-30T23:58:47.628Z,60.03
